sensor_id;sensor_type;location;lat;lon;timestamp;P1;durP1;ratioP1;P2;durP2;ratioP2
80510;SDS011;69840;53.040;8.600;2023-09-19T00:19:55;4.00;;;2.15;;
80510;SDS011;69840;53.040;8.600;2023-09-19T00:45:15;6.60;;;2.42;;
80510;SDS011;69840;53.040;8.600;2023-09-19T01:10:36;2.72;;;1.42;;
80510;SDS011;69840;53.040;8.600;2023-09-19T01:36:05;1.65;;;0.75;;
80510;SDS011;69840;53.040;8.600;2023-09-19T02:01:24;1.05;;;0.57;;
80510;SDS011;69840;53.040;8.600;2023-09-19T02:52:04;2.78;;;1.23;;
80510;SDS011;69840;53.040;8.600;2023-09-19T03:17:26;4.10;;;0.95;;
80510;SDS011;69840;53.040;8.600;2023-09-19T03:42:49;2.03;;;1.25;;
80510;SDS011;69840;53.040;8.600;2023-09-19T04:08:09;2.00;;;1.15;;
80510;SDS011;69840;53.040;8.600;2023-09-19T04:33:28;5.45;;;0.82;;
80510;SDS011;69840;53.040;8.600;2023-09-19T04:58:48;7.53;;;1.20;;
80510;SDS011;69840;53.040;8.600;2023-09-19T05:24:07;6.82;;;1.52;;
80510;SDS011;69840;53.040;8.600;2023-09-19T05:49:27;4.78;;;1.83;;
80510;SDS011;69840;53.040;8.600;2023-09-19T06:14:46;6.90;;;1.40;;
80510;SDS011;69840;53.040;8.600;2023-09-19T07:05:34;3.00;;;1.33;;
80510;SDS011;69840;53.040;8.600;2023-09-19T07:30:57;6.60;;;1.42;;
80510;SDS011;69840;53.040;8.600;2023-09-19T07:56:21;4.28;;;1.27;;
80510;SDS011;69840;53.040;8.600;2023-09-19T08:21:41;6.07;;;1.90;;
80510;SDS011;69840;53.040;8.600;2023-09-19T08:47:11;4.10;;;0.80;;
80510;SDS011;69840;53.040;8.600;2023-09-19T09:12:36;9.88;;;1.20;;
80510;SDS011;69840;53.040;8.600;2023-09-19T09:38:01;5.20;;;1.48;;
80510;SDS011;69840;53.040;8.600;2023-09-19T10:03:36;3.65;;;1.05;;
80510;SDS011;69840;53.040;8.600;2023-09-19T10:29:02;4.80;;;1.15;;
80510;SDS011;69840;53.040;8.600;2023-09-19T10:54:27;5.10;;;1.33;;
80510;SDS011;69840;53.040;8.600;2023-09-19T12:11:15;4.13;;;1.70;;
80510;SDS011;69840;53.040;8.600;2023-09-19T12:36:35;4.35;;;1.75;;
80510;SDS011;69840;53.040;8.600;2023-09-19T13:02:03;6.20;;;2.10;;
80510;SDS011;69840;53.040;8.600;2023-09-19T13:27:23;2.92;;;1.00;;
80510;SDS011;69840;53.040;8.600;2023-09-19T13:52:42;2.50;;;1.02;;
80510;SDS011;69840;53.040;8.600;2023-09-19T14:18:02;3.50;;;0.80;;
80510;SDS011;69840;53.040;8.600;2023-09-19T14:43:22;2.63;;;0.93;;
80510;SDS011;69840;53.040;8.600;2023-09-19T15:08:41;2.22;;;0.75;;
80510;SDS011;69840;53.040;8.600;2023-09-19T15:34:04;1.00;;;0.52;;
80510;SDS011;69840;53.040;8.600;2023-09-19T15:59:27;2.08;;;0.98;;
80510;SDS011;69840;53.040;8.600;2023-09-19T16:24:49;2.45;;;0.70;;
80510;SDS011;69840;53.040;8.600;2023-09-19T16:50:08;2.55;;;0.90;;
80510;SDS011;69840;53.040;8.600;2023-09-19T17:15:29;3.58;;;0.98;;
80510;SDS011;69840;53.040;8.600;2023-09-19T17:40:50;1.65;;;0.45;;
80510;SDS011;69840;53.040;8.600;2023-09-19T18:06:10;2.50;;;0.65;;
80510;SDS011;69840;53.040;8.600;2023-09-19T18:31:30;4.80;;;0.70;;
80510;SDS011;69840;53.040;8.600;2023-09-19T18:56:52;1.15;;;0.60;;
80510;SDS011;69840;53.040;8.600;2023-09-19T19:22:12;4.10;;;0.85;;
80510;SDS011;69840;53.040;8.600;2023-09-19T19:47:31;6.35;;;0.70;;
80510;SDS011;69840;53.040;8.600;2023-09-19T20:12:50;3.83;;;0.75;;
80510;SDS011;69840;53.040;8.600;2023-09-19T20:38:11;6.25;;;0.82;;
80510;SDS011;69840;53.040;8.600;2023-09-19T21:03:31;3.70;;;1.20;;
80510;SDS011;69840;53.040;8.600;2023-09-19T21:28:54;5.68;;;0.93;;
80510;SDS011;69840;53.040;8.600;2023-09-19T21:54:14;1.88;;;1.23;;
80510;SDS011;69840;53.040;8.600;2023-09-19T22:19:33;2.13;;;1.00;;
80510;SDS011;69840;53.040;8.600;2023-09-19T22:44:57;2.30;;;0.70;;
80510;SDS011;69840;53.040;8.600;2023-09-19T23:10:17;3.17;;;0.90;;
80510;SDS011;69840;53.040;8.600;2023-09-19T23:35:36;4.50;;;0.90;;
